Terminal Aerodrome Forecast
Issued by NWS

Home | Current Version | Previous Version | Text Only | Print | Product List | Glossary On
Versions: 1 2 3 4 5 6 7 8 9 10 11 12 13 14 15 16 17 18 19 20 21
000
FTUS43 KPAH 222300
TAFCGI
TAF
KCGI 222320Z 2300/2324 15010KT 4SM -SHRA BR OVC009
     FM230300 21010KT 3SM -DZ BR OVC005
     FM231500 VRB04KT 6SM BR BKN012 OVC040=

USA.gov is the U.S. government's official web portal to all federal, state and local government web resources and services.